createdAt,value
2018-06-17T00:01:38.497Z,14.12
2018-06-17T00:04:08.247Z,14.06
2018-06-17T00:06:38.009Z,14.08
2018-06-17T00:09:09.372Z,14.05
2018-06-17T00:11:39.117Z,14.00
2018-06-17T00:14:08.488Z,13.95
2018-06-17T00:16:38.177Z,14.04
2018-06-17T00:19:07.824Z,13.95
2018-06-17T00:21:37.645Z,13.85
2018-06-17T00:24:07.321Z,13.87
2018-06-17T00:26:37.120Z,13.93
2018-06-17T00:29:06.922Z,13.87
2018-06-17T00:31:36.585Z,13.80
2018-06-17T00:34:06.308Z,13.73
2018-06-17T00:36:36.019Z,13.71
2018-06-17T00:39:09.813Z,13.59
2018-06-17T00:41:39.704Z,13.52
2018-06-17T00:44:09.676Z,13.52
2018-06-17T00:46:39.372Z,13.43
2018-06-17T00:49:09.029Z,13.33
2018-06-17T00:51:38.749Z,13.36
2018-06-17T00:54:08.552Z,13.27
2018-06-17T00:56:38.345Z,13.23
2018-06-17T00:59:08.044Z,13.21
2018-06-17T01:01:37.729Z,13.12
2018-06-17T01:04:07.604Z,13.15
2018-06-17T01:06:36.943Z,13.20
2018-06-17T01:09:07.955Z,13.26
2018-06-17T01:11:37.579Z,13.22
2018-06-17T01:14:07.429Z,13.18
2018-06-17T01:16:37.052Z,13.15
2018-06-17T01:19:06.757Z,13.14
2018-06-17T01:21:36.729Z,13.17
2018-06-17T01:24:08.564Z,13.10
2018-06-17T01:26:38.240Z,13.02
2018-06-17T01:29:08.086Z,13.01
2018-06-17T01:31:37.733Z,12.97
2018-06-17T01:34:07.476Z,12.95
2018-06-17T01:36:37.231Z,12.95
2018-06-17T01:39:09.018Z,12.91
2018-06-17T01:41:38.690Z,12.94
2018-06-17T01:44:08.372Z,12.98
2018-06-17T01:46:38.005Z,12.99
2018-06-17T01:49:07.614Z,12.93
2018-06-17T01:51:37.342Z,12.98
2018-06-17T01:54:07.096Z,13.03
2018-06-17T01:56:36.753Z,13.10
2018-06-17T01:59:06.465Z,13.22
2018-06-17T02:01:36.063Z,13.27
2018-06-17T02:04:11.036Z,13.36
2018-06-17T02:06:45.648Z,13.33
2018-06-17T02:10:24.273Z,13.46
2018-06-17T02:12:53.958Z,13.26
2018-06-17T02:15:23.589Z,13.32
2018-06-17T02:17:53.285Z,13.23
2018-06-17T02:20:23.026Z,13.36
2018-06-17T02:22:52.630Z,13.36
2018-06-17T02:25:22.341Z,13.31
2018-06-17T02:27:51.648Z,13.22
2018-06-17T02:30:21.288Z,13.12
2018-06-17T02:32:51.093Z,13.03
2018-06-17T02:35:20.757Z,12.85
2018-06-17T02:37:50.495Z,12.73
2018-06-17T02:40:20.193Z,12.76
2018-06-17T02:42:49.852Z,12.92
2018-06-17T02:45:24.740Z,13.06
2018-06-17T02:47:59.708Z,13.33
2018-06-17T02:50:34.643Z,13.57
2018-06-17T02:53:09.441Z,13.61
2018-06-17T02:55:39.178Z,13.65
2018-06-17T02:58:08.829Z,13.60
2018-06-17T03:00:38.485Z,13.65
2018-06-17T03:03:08.197Z,13.69
2018-06-17T03:05:37.907Z,13.76
2018-06-17T03:08:07.623Z,13.75
2018-06-17T03:10:37.301Z,13.73
2018-06-17T03:13:06.849Z,13.72
2018-06-17T03:15:36.160Z,13.74
2018-06-17T03:18:05.919Z,13.79
2018-06-17T03:20:35.231Z,13.74
2018-06-17T03:23:04.873Z,13.85
2018-06-17T03:25:39.611Z,13.80
2018-06-17T03:28:14.384Z,13.88
2018-06-17T03:30:49.251Z,13.88
2018-06-17T03:33:23.994Z,13.93
2018-06-17T03:35:58.905Z,13.92
2018-06-17T03:38:28.555Z,13.84
2018-06-17T03:40:58.233Z,13.76
2018-06-17T03:43:27.900Z,13.76
2018-06-17T03:45:57.596Z,13.76
2018-06-17T03:48:27.244Z,13.81
2018-06-17T03:50:57.466Z,13.82
2018-06-17T03:53:27.335Z,13.94
2018-06-17T03:55:56.843Z,14.10
2018-06-17T03:58:26.674Z,14.13
2018-06-17T04:00:56.717Z,14.20
2018-06-17T04:03:26.343Z,14.11
2018-06-17T04:05:56.369Z,14.08
2018-06-17T04:08:26.018Z,14.19
2018-06-17T04:10:55.645Z,14.17
2018-06-17T04:13:25.273Z,14.08
2018-06-17T04:15:55.063Z,14.12
2018-06-17T04:18:24.671Z,14.31
2018-06-17T04:20:54.981Z,14.52
2018-06-17T04:23:24.608Z,14.45
2018-06-17T04:25:54.260Z,14.52
2018-06-17T04:28:23.921Z,14.56
2018-06-17T04:30:53.574Z,14.63
2018-06-17T04:33:23.192Z,14.79
2018-06-17T04:35:52.910Z,14.87
2018-06-17T04:38:22.552Z,15.28
2018-06-17T04:40:52.218Z,15.31
2018-06-17T04:43:21.941Z,15.15
2018-06-17T04:45:51.595Z,15.29
2018-06-17T04:48:21.259Z,15.20
2018-06-17T04:50:50.944Z,15.28
2018-06-17T04:53:20.231Z,15.14
2018-06-17T04:55:49.922Z,15.18
2018-06-17T04:58:19.589Z,15.28
2018-06-17T05:00:49.263Z,15.24
2018-06-17T05:03:18.898Z,15.32
2018-06-17T05:05:48.279Z,15.37
2018-06-17T05:08:17.959Z,15.36
2018-06-17T05:10:47.726Z,15.42
2018-06-17T05:13:17.376Z,15.76
2018-06-17T05:15:47.021Z,15.50
2018-06-17T05:18:16.648Z,15.64
2018-06-17T05:20:46.313Z,15.59
2018-06-17T05:23:15.957Z,15.65
2018-06-17T05:25:45.917Z,15.65
2018-06-17T05:28:15.261Z,15.70
2018-06-17T05:30:44.868Z,15.88
2018-06-17T05:33:14.507Z,15.89
2018-06-17T05:35:44.285Z,16.04
2018-06-17T05:38:13.949Z,15.81
2018-06-17T05:40:43.623Z,15.94
2018-06-17T05:43:13.320Z,15.98
2018-06-17T05:45:43.081Z,16.15
2018-06-17T05:48:12.815Z,16.54
2018-06-17T05:50:42.239Z,16.64
2018-06-17T05:53:11.986Z,16.74
2018-06-17T05:55:41.692Z,16.97
2018-06-17T05:58:11.435Z,16.66
2018-06-17T06:00:41.075Z,16.63
2018-06-17T06:03:10.782Z,16.71
2018-06-17T06:05:40.230Z,16.73
2018-06-17T06:08:09.924Z,16.74
2018-06-17T06:10:39.688Z,16.71
2018-06-17T06:13:09.425Z,17.13
2018-06-17T06:15:39.053Z,16.88
2018-06-17T06:18:08.455Z,16.95
2018-06-17T06:20:37.756Z,17.05
2018-06-17T06:23:07.074Z,17.34
2018-06-17T06:25:36.717Z,17.77
2018-06-17T06:28:06.377Z,17.58
2018-06-17T06:30:36.071Z,17.88
2018-06-17T06:33:05.769Z,18.14
2018-06-17T06:35:38.403Z,18.15
2018-06-17T06:38:09.494Z,18.33
2018-06-17T06:40:39.176Z,18.30
2018-06-17T06:43:08.971Z,18.17
2018-06-17T06:45:38.350Z,18.43
2018-06-17T06:48:08.024Z,18.46
2018-06-17T06:50:37.718Z,18.27
2018-06-17T06:53:07.621Z,18.09
2018-06-17T06:55:36.982Z,18.39
2018-06-17T06:58:06.877Z,18.72
2018-06-17T07:00:36.582Z,18.42
2018-06-17T07:03:23.040Z,18.55
2018-06-17T07:06:09.625Z,18.12
2018-06-17T07:09:56.988Z,18.49
2018-06-17T07:12:26.679Z,19.37
2018-06-17T07:14:56.489Z,19.67
2018-06-17T07:17:42.975Z,19.53
2018-06-17T07:20:12.786Z,19.90
2018-06-17T07:22:44.486Z,19.46
2018-06-17T07:26:32.101Z,19.67
2018-06-17T07:29:18.906Z,19.77
2018-06-17T07:31:48.658Z,20.44
2018-06-17T07:34:18.598Z,20.56
2018-06-17T07:36:48.438Z,20.55
2018-06-17T07:40:57.519Z,20.07
2018-06-17T07:43:27.288Z,21.01
2018-06-17T07:45:57.002Z,21.76
2018-06-17T07:49:47.684Z,22.05
2018-06-17T07:52:35.521Z,22.70
2018-06-17T07:55:07.175Z,22.38
2018-06-17T07:57:39.524Z,22.58
2018-06-17T08:00:09.318Z,22.98
2018-06-17T08:02:39.061Z,22.57
2018-06-17T08:05:08.748Z,22.66
2018-06-17T08:07:38.544Z,22.45
2018-06-17T08:10:08.265Z,22.48
2018-06-17T08:12:37.632Z,21.77
2018-06-17T08:15:08.219Z,21.01
2018-06-17T08:17:38.038Z,21.21
2018-06-17T08:20:08.098Z,21.84
2018-06-17T08:22:37.813Z,21.38
2018-06-17T08:25:07.462Z,21.44
2018-06-17T08:27:37.168Z,21.19
2018-06-17T08:30:07.053Z,21.85
2018-06-17T08:32:36.821Z,22.61
2018-06-17T08:35:06.655Z,22.77
2018-06-17T08:37:36.381Z,22.65
2018-06-17T08:40:06.265Z,22.51
2018-06-17T08:42:35.937Z,22.87
2018-06-17T08:45:05.690Z,22.52
2018-06-17T08:47:35.060Z,21.98
2018-06-17T08:50:05.768Z,21.34
2018-06-17T08:52:35.582Z,21.29
2018-06-17T08:55:05.425Z,21.89
2018-06-17T08:57:34.877Z,23.42
2018-06-17T09:00:04.668Z,23.00
2018-06-17T09:02:34.389Z,22.86
2018-06-17T09:05:04.129Z,23.17
2018-06-17T09:07:34.002Z,22.69
2018-06-17T09:10:03.694Z,23.18
2018-06-17T09:12:33.405Z,22.47
2018-06-17T09:15:03.100Z,22.93
2018-06-17T09:17:32.759Z,22.53
2018-06-17T09:20:02.454Z,23.33
2018-06-17T09:22:32.249Z,23.45
2018-06-17T09:25:01.933Z,23.30
2018-06-17T09:27:31.671Z,22.44
2018-06-17T09:30:01.350Z,23.29
2018-06-17T09:32:31.193Z,23.38
2018-06-17T09:35:00.943Z,24.63
2018-06-17T09:37:30.644Z,24.75
2018-06-17T09:40:00.359Z,23.84
2018-06-17T09:42:30.066Z,23.54
2018-06-17T09:44:59.767Z,22.99
2018-06-17T09:47:29.497Z,23.23
2018-06-17T09:49:59.270Z,21.92
2018-06-17T09:52:28.595Z,23.43
2018-06-17T09:54:58.313Z,24.65
2018-06-17T09:57:28.104Z,24.09
2018-06-17T09:59:57.493Z,23.36
2018-06-17T10:02:27.290Z,24.03
2018-06-17T10:04:57.032Z,23.52
2018-06-17T10:07:26.376Z,23.97
2018-06-17T10:11:07.327Z,23.99
2018-06-17T10:13:41.300Z,24.55
2018-06-17T10:16:11.540Z,25.47
2018-06-17T10:18:41.373Z,25.35
2018-06-17T10:21:11.282Z,24.74
2018-06-17T10:23:40.956Z,24.91
2018-06-17T10:26:10.336Z,24.48
2018-06-17T10:28:40.061Z,23.59
2018-06-17T10:31:09.861Z,23.53
2018-06-17T10:33:39.599Z,25.55
2018-06-17T10:36:09.585Z,27.24
2018-06-17T10:38:39.242Z,27.52
2018-06-17T10:41:08.985Z,27.50
2018-06-17T10:43:38.764Z,27.37
2018-06-17T10:46:08.527Z,25.30
2018-06-17T10:48:38.203Z,24.80
2018-06-17T10:51:07.989Z,25.83
2018-06-17T10:53:37.735Z,25.51
2018-06-17T10:56:07.535Z,26.15
2018-06-17T10:58:37.240Z,27.03
2018-06-17T11:01:06.607Z,26.02
2018-06-17T11:03:36.410Z,25.94
2018-06-17T11:06:06.163Z,25.08
2018-06-17T11:08:35.861Z,25.25
2018-06-17T11:11:05.626Z,25.94
2018-06-17T11:13:34.953Z,24.67
2018-06-17T11:16:04.589Z,24.74
2018-06-17T11:18:34.343Z,25.50
2018-06-17T11:21:04.167Z,26.24
2018-06-17T11:23:33.508Z,27.48
2018-06-17T11:26:03.197Z,28.06
2018-06-17T11:28:32.912Z,28.31
2018-06-17T11:31:02.705Z,27.16
2018-06-17T11:33:32.085Z,25.80
2018-06-17T11:36:01.452Z,25.73
2018-06-17T11:38:31.214Z,24.30
2018-06-17T11:41:00.921Z,24.66
2018-06-17T11:43:30.575Z,25.05
2018-06-17T11:46:00.303Z,24.73
2018-06-17T11:48:30.074Z,24.04
2018-06-17T11:50:59.837Z,23.96
2018-06-17T11:53:29.361Z,23.81
2018-06-17T11:55:59.033Z,22.97
2018-06-17T11:58:28.815Z,23.02
2018-06-17T12:00:58.517Z,22.48
2018-06-17T12:03:28.285Z,22.19
2018-06-17T12:05:57.992Z,22.27
2018-06-17T12:08:27.830Z,22.54
2018-06-17T12:10:57.539Z,22.48
2018-06-17T12:13:27.230Z,22.83
2018-06-17T12:15:56.901Z,23.10
2018-06-17T12:18:26.661Z,22.78
2018-06-17T12:20:56.349Z,23.29
2018-06-17T12:23:26.066Z,23.34
2018-06-17T12:25:55.457Z,23.55
2018-06-17T12:28:25.256Z,23.81
2018-06-17T12:30:54.965Z,24.11
2018-06-17T12:33:24.693Z,24.23
2018-06-17T12:35:54.499Z,24.31
2018-06-17T12:38:24.283Z,24.01
2018-06-17T12:40:54.160Z,23.80
2018-06-17T12:43:23.817Z,23.82
2018-06-17T12:45:53.458Z,23.76
2018-06-17T12:48:23.162Z,23.31
2018-06-17T12:50:52.909Z,22.84
2018-06-17T12:53:22.790Z,22.36
2018-06-17T12:55:52.932Z,22.48
2018-06-17T12:58:23.155Z,22.27
2018-06-17T13:00:52.900Z,22.20
2018-06-17T13:03:22.385Z,22.31
2018-06-17T13:05:52.342Z,22.53
2018-06-17T13:08:22.645Z,22.57
2018-06-17T13:10:52.545Z,22.09
2018-06-17T13:13:22.328Z,21.76
2018-06-17T13:15:52.030Z,21.51
2018-06-17T13:18:21.780Z,21.92
2018-06-17T13:20:51.863Z,22.14
2018-06-17T13:23:21.777Z,22.19
2018-06-17T13:25:51.422Z,22.34
2018-06-17T13:28:21.204Z,22.73
2018-06-17T13:30:51.006Z,23.35
2018-06-17T13:33:20.369Z,23.47
2018-06-17T13:35:50.153Z,23.73
2018-06-17T13:38:19.836Z,24.00
2018-06-17T13:40:49.525Z,24.30
2018-06-17T13:43:19.196Z,24.28
2018-06-17T13:45:48.896Z,23.55
2018-06-17T13:48:18.627Z,23.06
2018-06-17T13:50:48.490Z,22.59
2018-06-17T13:53:18.356Z,22.73
2018-06-17T13:55:48.116Z,22.39
2018-06-17T13:58:17.865Z,22.45
2018-06-17T14:00:47.565Z,22.55
2018-06-17T14:03:17.988Z,22.60
2018-06-17T14:05:47.340Z,22.22
2018-06-17T14:08:17.072Z,21.77
2018-06-17T14:10:46.795Z,21.59
2018-06-17T14:13:16.474Z,21.18
2018-06-17T14:15:46.143Z,21.62
2018-06-17T14:18:15.533Z,21.23
2018-06-17T14:20:45.239Z,21.15
2018-06-17T14:23:14.904Z,21.12
2018-06-17T14:25:44.584Z,21.16
2018-06-17T14:28:14.403Z,21.39
2018-06-17T14:33:05.817Z,22.01
2018-06-17T14:35:35.522Z,21.88
2018-06-17T14:38:05.410Z,22.13
2018-06-17T14:41:39.142Z,22.44
2018-06-17T14:44:13.992Z,22.12
2018-06-17T14:46:49.002Z,22.23
2018-06-17T14:49:23.848Z,22.12
2018-06-17T14:51:58.510Z,22.43
2018-06-17T14:54:28.220Z,22.21
2018-06-17T14:56:57.964Z,21.91
2018-06-17T14:59:27.645Z,21.63
2018-06-17T15:01:57.358Z,21.45
2018-06-17T15:04:27.019Z,22.25
2018-06-17T15:06:56.924Z,22.01
2018-06-17T15:09:26.641Z,22.02
2018-06-17T15:11:56.086Z,21.58
2018-06-17T15:14:25.507Z,21.30
2018-06-17T15:16:55.287Z,21.12
2018-06-17T15:19:25.043Z,21.40
2018-06-17T15:21:54.754Z,20.69
2018-06-17T15:24:24.493Z,20.86
2018-06-17T15:26:54.216Z,20.81
2018-06-17T15:29:24.037Z,20.74
2018-06-17T15:31:58.897Z,20.30
2018-06-17T15:34:33.568Z,19.92
2018-06-17T15:37:08.299Z,20.28
2018-06-17T15:39:42.988Z,19.91
2018-06-17T15:42:12.737Z,20.13
2018-06-17T15:44:42.386Z,20.12
2018-06-17T15:47:12.148Z,20.06
2018-06-17T15:49:41.921Z,20.34
2018-06-17T15:52:11.641Z,19.97
2018-06-17T15:54:44.544Z,20.25
2018-06-17T15:57:13.937Z,20.42
2018-06-17T15:59:43.546Z,20.21
2018-06-17T16:02:13.289Z,20.61
2018-06-17T16:04:42.945Z,20.87
2018-06-17T16:07:12.590Z,20.68
2018-06-17T16:09:41.920Z,20.56
2018-06-17T16:12:16.619Z,20.38
2018-06-17T16:14:51.426Z,20.58
2018-06-17T16:17:26.331Z,20.73
2018-06-17T16:20:01.162Z,20.64
2018-06-17T16:22:30.846Z,20.59
2018-06-17T16:25:00.166Z,20.84
2018-06-17T16:27:29.896Z,20.85
2018-06-17T16:29:59.591Z,20.59
2018-06-17T16:32:29.318Z,20.75
2018-06-17T16:34:59.026Z,20.93
2018-06-17T16:37:28.718Z,20.48
2018-06-17T16:39:58.144Z,20.13
2018-06-17T16:42:27.768Z,20.32
2018-06-17T16:44:57.638Z,19.98
2018-06-17T16:47:27.051Z,19.69
2018-06-17T16:49:56.743Z,19.84
2018-06-17T16:52:31.595Z,19.68
2018-06-17T16:55:02.249Z,19.66
2018-06-17T16:57:37.319Z,20.02
2018-06-17T17:00:13.004Z,19.73
2018-06-17T17:02:42.332Z,20.35
2018-06-17T17:05:12.297Z,20.35
2018-06-17T17:07:42.400Z,19.70
2018-06-17T17:10:12.088Z,20.01
2018-06-17T17:12:41.822Z,19.91
2018-06-17T17:15:11.530Z,19.65
2018-06-17T17:17:41.253Z,19.97
2018-06-17T17:20:10.932Z,19.40
2018-06-17T17:22:40.628Z,19.34
2018-06-17T17:25:10.309Z,19.67
2018-06-17T17:27:40.022Z,19.84
2018-06-17T17:30:09.392Z,19.68
2018-06-17T17:32:44.073Z,19.52
2018-06-17T17:35:19.000Z,19.63
2018-06-17T17:37:53.993Z,19.50
2018-06-17T17:40:28.749Z,19.54
2018-06-17T17:42:58.532Z,19.38
2018-06-17T17:45:32.307Z,19.42
2018-06-17T17:48:01.976Z,19.59
2018-06-17T17:50:31.661Z,19.82
2018-06-17T17:53:01.451Z,19.73
2018-06-17T17:55:31.246Z,19.35
2018-06-17T17:58:00.955Z,19.30
2018-06-17T18:00:30.678Z,19.44
2018-06-17T18:03:00.412Z,19.44
2018-06-17T18:05:30.136Z,19.46
2018-06-17T18:08:00.014Z,19.40
2018-06-17T18:10:29.790Z,19.38
2018-06-17T18:12:59.462Z,19.38
2018-06-17T18:15:29.217Z,19.15
2018-06-17T18:17:58.903Z,19.19
2018-06-17T18:20:29.905Z,19.13
2018-06-17T18:22:59.705Z,19.06
2018-06-17T18:25:34.554Z,18.91
2018-06-17T18:28:09.573Z,18.80
2018-06-17T18:30:44.592Z,18.75
2018-06-17T18:33:19.565Z,18.39
2018-06-17T18:35:56.141Z,18.33
2018-06-17T18:38:26.094Z,18.31
2018-06-17T18:40:55.934Z,18.22
2018-06-17T18:43:25.606Z,18.02
2018-06-17T18:45:54.943Z,18.17
2018-06-17T18:48:24.636Z,18.00
2018-06-17T18:50:54.477Z,18.01
2018-06-17T18:53:25.617Z,17.72
2018-06-17T18:55:55.627Z,17.59
2018-06-17T18:58:25.618Z,17.25
2018-06-17T19:00:55.262Z,17.17
2018-06-17T19:03:24.937Z,16.94
2018-06-17T19:05:54.890Z,16.85
2018-06-17T19:08:29.599Z,16.81
2018-06-17T19:11:04.243Z,16.70
2018-06-17T19:13:39.193Z,16.69
2018-06-17T19:16:16.533Z,16.56
2018-06-17T19:18:46.331Z,16.40
2018-06-17T19:21:16.068Z,16.25
2018-06-17T19:23:45.813Z,16.11
2018-06-17T19:26:15.613Z,16.03
2018-06-17T19:28:45.451Z,15.95
2018-06-17T19:31:15.154Z,15.99
2018-06-17T19:33:45.129Z,16.05
2018-06-17T19:36:14.924Z,16.11
2018-06-17T19:38:45.629Z,16.19
2018-06-17T19:41:15.458Z,16.27
2018-06-17T19:43:44.873Z,16.32
2018-06-17T19:46:14.615Z,16.34
2018-06-17T19:48:44.292Z,16.41
2018-06-17T19:51:19.244Z,16.51
2018-06-17T19:53:54.024Z,16.60
2018-06-17T19:56:28.934Z,16.71
2018-06-17T20:00:09.926Z,16.72
2018-06-17T20:02:39.709Z,16.68
2018-06-17T20:05:09.381Z,16.65
2018-06-17T20:07:39.133Z,16.66
2018-06-17T20:10:08.905Z,16.71
2018-06-17T20:12:38.677Z,16.74
2018-06-17T20:15:08.502Z,16.82
2018-06-17T20:17:38.218Z,16.89
2018-06-17T20:20:08.467Z,16.84
2018-06-17T20:22:38.167Z,16.84
2018-06-17T20:25:08.267Z,16.86
2018-06-17T20:27:37.985Z,16.83
2018-06-17T20:30:08.821Z,16.79
2018-06-17T20:33:43.242Z,16.85
2018-06-17T20:36:17.987Z,16.89
2018-06-17T20:38:52.939Z,16.84
2018-06-17T20:41:27.757Z,16.89
2018-06-17T20:43:57.912Z,16.87
2018-06-17T20:46:28.014Z,16.88
2018-06-17T20:48:57.470Z,17.00
2018-06-17T20:51:27.239Z,17.00
2018-06-17T20:53:57.033Z,17.01
2018-06-17T20:56:27.033Z,17.06
2018-06-17T20:58:56.877Z,17.03
2018-06-17T21:01:26.784Z,17.11
2018-06-17T21:03:56.510Z,17.15
2018-06-17T21:06:26.613Z,17.28
2018-06-17T21:08:56.410Z,17.15
2018-06-17T21:11:26.095Z,17.15
2018-06-17T21:13:55.926Z,17.11
2018-06-17T21:16:25.709Z,17.24
2018-06-17T21:19:00.329Z,17.35
2018-06-17T21:21:34.827Z,17.33
2018-06-17T21:24:09.813Z,17.35
2018-06-17T21:26:44.583Z,17.49
2018-06-17T21:29:13.912Z,17.38
2018-06-17T21:31:43.743Z,17.34
2018-06-17T21:34:13.085Z,17.34
2018-06-17T21:36:42.941Z,17.32
2018-06-17T21:39:12.653Z,17.33
2018-06-17T21:41:42.463Z,17.36
2018-06-17T21:44:12.259Z,17.45
2018-06-17T21:46:41.974Z,17.45
2018-06-17T21:49:11.659Z,17.37
2018-06-17T21:51:41.316Z,17.35
2018-06-17T21:54:11.032Z,17.35
2018-06-17T21:56:40.686Z,17.33
2018-06-17T21:59:10.465Z,17.25
2018-06-17T22:01:40.177Z,17.27
2018-06-17T22:04:15.157Z,17.23
2018-06-17T22:06:44.880Z,17.24
2018-06-17T22:10:17.350Z,17.18
2018-06-17T22:12:52.354Z,17.13
2018-06-17T22:15:27.082Z,17.09
2018-06-17T22:17:56.767Z,17.14
2018-06-17T22:20:26.435Z,17.12
2018-06-17T22:22:56.104Z,17.08
2018-06-17T22:25:25.771Z,17.03
2018-06-17T22:27:55.594Z,17.06
2018-06-17T22:30:25.429Z,17.03
2018-06-17T22:32:54.767Z,17.05
2018-06-17T22:35:24.484Z,16.99
2018-06-17T22:37:54.202Z,17.04
2018-06-17T22:40:24.877Z,16.97
2018-06-17T22:42:54.541Z,16.95
2018-06-17T22:45:24.818Z,16.95
2018-06-17T22:47:58.996Z,16.85
2018-06-17T22:50:28.796Z,16.83
2018-06-17T22:53:15.208Z,16.87
2018-06-17T22:55:44.862Z,16.94
2018-06-17T22:58:19.661Z,16.98
2018-06-17T23:00:55.454Z,16.94
2018-06-17T23:03:30.159Z,16.96
2018-06-17T23:06:04.898Z,16.86
2018-06-17T23:08:39.614Z,16.84
2018-06-17T23:11:09.277Z,16.96
2018-06-17T23:13:38.918Z,16.92
2018-06-17T23:16:08.542Z,16.83
2018-06-17T23:18:38.189Z,16.87
2018-06-17T23:21:07.528Z,16.86
2018-06-17T23:23:37.172Z,16.93
2018-06-17T23:26:07.157Z,16.89
2018-06-17T23:28:36.789Z,16.84
2018-06-17T23:31:06.501Z,16.79
2018-06-17T23:33:36.121Z,16.82
2018-06-17T23:36:05.565Z,16.85
2018-06-17T23:38:35.242Z,16.73
2018-06-17T23:41:05.102Z,16.73
2018-06-17T23:43:34.493Z,16.72
2018-06-17T23:46:09.460Z,16.71
2018-06-17T23:48:44.203Z,16.69
2018-06-17T23:51:18.985Z,16.69
2018-06-17T23:53:53.412Z,16.59
2018-06-17T23:56:23.024Z,16.55
2018-06-17T23:58:52.666Z,16.59
